Licenciado Benito Juarez International Airport
MMMX : now visible

Airfield :











YOU CAN JOIN US ON...

 
LOGIN :

Register | Disclaimer

   EN    FR    IT 

 









Legend :    VFR   Marginal VFR   IFR   Intensive IFR   Very Intensive IFR
Visi :
Ceiling :
>= 8 km
>= 3000ft
5 to 8 km
1000 to 3000 ft
1500m to 5 km
500 to 1000 ft
800 to 1500m
200 to 500 ft
< 800m
< 200 ft
Symbols :   Thunderstorms  Fog  Heavy snow  Heavy precipitations  Wind > 20 kt






- Airport Elevation : 7316 ft
- IATA code : MEX


MMMX - Licenciado Benito Juarez International

CURRENT METAR :
  • 170120Z 36020KT 12SM SKC 24/07 A3011 NOSIG RMK ISOL CU CI

EXPIRED METARs :
  • 170045Z 36018KT 12SM SKC 26/05 A3009 NOSIG RMK ISOL CU CI
  • 162345Z 35013KT 12SM FEW220 28/02 A3007 NOSIG RMK SLP990 57016 963 8/001 ISOL CU 1ST QUAD
  • 162244Z 32006KT 12SM SCT220 28/02 A3008 NOSIG RMK 8/002 ISOL CU 1ST QUAD
  • 162143Z 28006KT 12SM BKN220 28/01 A3009 NOSIG RMK 8/008 ISOL CU 1ST QUAD
  • 162049Z 16008KT 12SM BKN220 27/M02 A3012 NOSIG RMK SLP006 57021 957 8/008 ISOL CU

TAF AMD TAF MMMX
Valid from the 17 at 01:00 until the 18 at 00:00 UTC


170123Z 1701/1800 36020KT P6SM SKC TX29/1721Z TN16/1712Z
FM170300 04010KT P6SM SCT200
FM171800 34015KT P6SM SCT200
TEMPO 1721/1724 36010G20KT
MMFR FIR / North America



MET'MAP, your aeronautical weather chart ! - Copyright ORBIFLY December 2007 - Disclaimer

ORBIFLY MET'MAP TEAM :

Programming & Development : Alexandra Zaïnal
Original concept : Baudouin d'Aumeries
Technical & hardware support : Manuel Goepfert
Assistance : Marc-Olivier Méhu




SOURCES & CREDITS :

   NOAA       Earth
Advisory